sensor_id;sensor_type;location;lat;lon;timestamp;P1;durP1;ratioP1;P2;durP2;ratioP2
12912;SDS011;6524;51.368;11.984;2022-11-20T00:00:17;26.07;;;17.00;;
12912;SDS011;6524;51.368;11.984;2022-11-20T00:05:17;23.33;;;14.87;;
12912;SDS011;6524;51.368;11.984;2022-11-20T00:10:18;22.03;;;13.97;;
12912;SDS011;6524;51.368;11.984;2022-11-20T00:15:18;21.30;;;13.80;;
12912;SDS011;6524;51.368;11.984;2022-11-20T00:20:18;19.23;;;13.83;;
12912;SDS011;6524;51.368;11.984;2022-11-20T00:25:19;21.67;;;14.30;;
12912;SDS011;6524;51.368;11.984;2022-11-20T00:30:19;19.77;;;13.93;;
12912;SDS011;6524;51.368;11.984;2022-11-20T00:35:19;22.53;;;14.07;;
12912;SDS011;6524;51.368;11.984;2022-11-20T00:40:20;25.03;;;15.53;;
12912;SDS011;6524;51.368;11.984;2022-11-20T00:45:20;21.73;;;14.43;;
12912;SDS011;6524;51.368;11.984;2022-11-20T00:50:20;22.90;;;14.80;;
12912;SDS011;6524;51.368;11.984;2022-11-20T00:55:21;26.23;;;15.10;;
12912;SDS011;6524;51.368;11.984;2022-11-20T01:05:33;26.73;;;16.57;;
12912;SDS011;6524;51.368;11.984;2022-11-20T01:10:35;21.20;;;14.50;;
12912;SDS011;6524;51.368;11.984;2022-11-20T01:15:35;21.57;;;13.93;;
12912;SDS011;6524;51.368;11.984;2022-11-20T01:20:36;19.70;;;13.00;;
12912;SDS011;6524;51.368;11.984;2022-11-20T01:25:37;20.00;;;13.13;;
12912;SDS011;6524;51.368;11.984;2022-11-20T01:30:37;20.73;;;13.23;;
12912;SDS011;6524;51.368;11.984;2022-11-20T01:35:37;18.63;;;12.23;;
12912;SDS011;6524;51.368;11.984;2022-11-20T01:40:38;20.85;;;12.07;;
12912;SDS011;6524;51.368;11.984;2022-11-20T01:50:54;17.77;;;12.33;;
12912;SDS011;6524;51.368;11.984;2022-11-20T01:55:55;20.07;;;11.77;;
12912;SDS011;6524;51.368;11.984;2022-11-20T02:00:58;19.17;;;11.97;;
12912;SDS011;6524;51.368;11.984;2022-11-20T05:00:43;27.93;;;17.30;;
12912;SDS011;6524;51.368;11.984;2022-11-20T05:05:43;32.50;;;16.63;;
12912;SDS011;6524;51.368;11.984;2022-11-20T05:10:44;29.80;;;17.45;;
12912;SDS011;6524;51.368;11.984;2022-11-20T05:15:44;31.10;;;18.15;;
12912;SDS011;6524;51.368;11.984;2022-11-20T05:20:44;33.65;;;19.38;;
12912;SDS011;6524;51.368;11.984;2022-11-20T05:25:45;33.50;;;20.13;;
12912;SDS011;6524;51.368;11.984;2022-11-20T05:30:45;36.00;;;21.08;;
12912;SDS011;6524;51.368;11.984;2022-11-20T05:35:45;37.13;;;21.57;;
12912;SDS011;6524;51.368;11.984;2022-11-20T05:40:46;43.17;;;26.20;;
12912;SDS011;6524;51.368;11.984;2022-11-20T05:45:53;46.42;;;28.38;;
12912;SDS011;6524;51.368;11.984;2022-11-20T05:50:55;44.87;;;26.30;;
12912;SDS011;6524;51.368;11.984;2022-11-20T05:55:58;41.10;;;23.37;;
12912;SDS011;6524;51.368;11.984;2022-11-20T06:01:07;36.10;;;20.47;;
12912;SDS011;6524;51.368;11.984;2022-11-20T06:06:10;31.60;;;18.53;;
12912;SDS011;6524;51.368;11.984;2022-11-20T06:11:11;31.60;;;18.58;;
12912;SDS011;6524;51.368;11.984;2022-11-20T06:16:14;35.00;;;19.47;;
12912;SDS011;6524;51.368;11.984;2022-11-20T06:21:19;35.17;;;19.13;;
12912;SDS011;6524;51.368;11.984;2022-11-20T06:26:26;32.83;;;19.10;;
12912;SDS011;6524;51.368;11.984;2022-11-20T06:31:27;30.90;;;17.93;;
12912;SDS011;6524;51.368;11.984;2022-11-20T06:36:28;35.67;;;20.43;;
12912;SDS011;6524;51.368;11.984;2022-11-20T06:41:28;32.53;;;18.37;;
12912;SDS011;6524;51.368;11.984;2022-11-20T06:46:29;35.60;;;18.10;;
12912;SDS011;6524;51.368;11.984;2022-11-20T06:51:29;36.27;;;19.33;;
12912;SDS011;6524;51.368;11.984;2022-11-20T06:56:29;31.87;;;17.90;;
12912;SDS011;6524;51.368;11.984;2022-11-20T07:01:30;31.67;;;18.23;;
12912;SDS011;6524;51.368;11.984;2022-11-20T07:06:30;29.57;;;17.40;;
12912;SDS011;6524;51.368;11.984;2022-11-20T07:11:30;32.23;;;17.90;;
12912;SDS011;6524;51.368;11.984;2022-11-20T07:16:31;33.53;;;18.77;;
12912;SDS011;6524;51.368;11.984;2022-11-20T07:21:32;31.10;;;18.70;;
12912;SDS011;6524;51.368;11.984;2022-11-20T07:26:32;36.67;;;20.77;;
12912;SDS011;6524;51.368;11.984;2022-11-20T07:31:33;34.47;;;17.97;;
12912;SDS011;6524;51.368;11.984;2022-11-20T07:36:33;31.10;;;17.77;;
12912;SDS011;6524;51.368;11.984;2022-11-20T07:41:34;31.40;;;18.17;;
12912;SDS011;6524;51.368;11.984;2022-11-20T07:46:34;32.93;;;19.27;;
12912;SDS011;6524;51.368;11.984;2022-11-20T07:51:35;29.60;;;17.77;;
12912;SDS011;6524;51.368;11.984;2022-11-20T07:56:35;31.40;;;18.00;;
12912;SDS011;6524;51.368;11.984;2022-11-20T08:01:35;29.77;;;17.70;;
12912;SDS011;6524;51.368;11.984;2022-11-20T08:06:36;25.93;;;15.53;;
12912;SDS011;6524;51.368;11.984;2022-11-20T08:11:36;26.73;;;15.60;;
12912;SDS011;6524;51.368;11.984;2022-11-20T08:16:55;26.03;;;14.90;;
12912;SDS011;6524;51.368;11.984;2022-11-20T08:21:56;23.43;;;14.53;;
12912;SDS011;6524;51.368;11.984;2022-11-20T08:26:59;23.67;;;13.93;;
12912;SDS011;6524;51.368;11.984;2022-11-20T08:32:00;25.07;;;13.60;;
12912;SDS011;6524;51.368;11.984;2022-11-20T08:37:01;23.10;;;13.27;;
12912;SDS011;6524;51.368;11.984;2022-11-20T08:42:06;24.73;;;13.67;;
12912;SDS011;6524;51.368;11.984;2022-11-20T08:47:07;24.17;;;13.80;;
12912;SDS011;6524;51.368;11.984;2022-11-20T08:52:07;21.73;;;13.13;;
12912;SDS011;6524;51.368;11.984;2022-11-20T08:57:07;21.57;;;13.10;;
12912;SDS011;6524;51.368;11.984;2022-11-20T09:02:08;24.27;;;13.47;;
12912;SDS011;6524;51.368;11.984;2022-11-20T09:07:09;22.87;;;13.13;;
12912;SDS011;6524;51.368;11.984;2022-11-20T09:12:09;20.13;;;12.47;;
12912;SDS011;6524;51.368;11.984;2022-11-20T09:17:10;20.80;;;12.87;;
12912;SDS011;6524;51.368;11.984;2022-11-20T09:22:13;20.93;;;13.30;;
12912;SDS011;6524;51.368;11.984;2022-11-20T09:27:13;20.80;;;13.20;;
12912;SDS011;6524;51.368;11.984;2022-11-20T09:32:14;20.50;;;12.53;;
12912;SDS011;6524;51.368;11.984;2022-11-20T09:37:14;18.13;;;11.93;;
12912;SDS011;6524;51.368;11.984;2022-11-20T09:58:12;15.10;;;11.40;;
12912;SDS011;6524;51.368;11.984;2022-11-20T10:03:22;16.33;;;11.32;;
12912;SDS011;6524;51.368;11.984;2022-11-20T10:13:48;13.88;;;11.27;;
12912;SDS011;6524;51.368;11.984;2022-11-20T10:24:30;11.00;;;9.82;;
12912;SDS011;6524;51.368;11.984;2022-11-20T10:29:35;13.02;;;10.80;;
12912;SDS011;6524;51.368;11.984;2022-11-20T10:39:58;11.32;;;9.57;;
12912;SDS011;6524;51.368;11.984;2022-11-20T10:45:15;11.65;;;9.38;;
12912;SDS011;6524;51.368;11.984;2022-11-20T10:50:29;12.38;;;10.40;;
12912;SDS011;6524;51.368;11.984;2022-11-20T11:00:42;11.38;;;9.57;;
12912;SDS011;6524;51.368;11.984;2022-11-20T11:05:44;11.32;;;10.13;;
12912;SDS011;6524;51.368;11.984;2022-11-20T11:11:17;12.73;;;10.38;;
12912;SDS011;6524;51.368;11.984;2022-11-20T11:16:23;12.15;;;10.07;;
12912;SDS011;6524;51.368;11.984;2022-11-20T11:21:25;12.73;;;10.32;;
12912;SDS011;6524;51.368;11.984;2022-11-20T11:26:26;12.48;;;11.10;;
12912;SDS011;6524;51.368;11.984;2022-11-20T11:31:32;13.00;;;11.48;;
12912;SDS011;6524;51.368;11.984;2022-11-20T11:36:34;12.45;;;10.70;;
12912;SDS011;6524;51.368;11.984;2022-11-20T11:41:35;12.25;;;10.60;;
12912;SDS011;6524;51.368;11.984;2022-11-20T11:46:36;13.18;;;11.23;;
12912;SDS011;6524;51.368;11.984;2022-11-20T11:57:00;12.77;;;10.20;;
12912;SDS011;6524;51.368;11.984;2022-11-20T12:02:09;14.33;;;10.80;;
12912;SDS011;6524;51.368;11.984;2022-11-20T12:07:36;14.87;;;10.57;;
12912;SDS011;6524;51.368;11.984;2022-11-20T12:12:42;15.03;;;10.67;;
12912;SDS011;6524;51.368;11.984;2022-11-20T12:17:46;15.40;;;11.13;;
12912;SDS011;6524;51.368;11.984;2022-11-20T12:22:59;15.83;;;10.37;;
12912;SDS011;6524;51.368;11.984;2022-11-20T12:28:44;15.10;;;10.40;;
12912;SDS011;6524;51.368;11.984;2022-11-20T12:39:16;14.30;;;10.23;;
12912;SDS011;6524;51.368;11.984;2022-11-20T12:44:39;14.97;;;10.37;;
12912;SDS011;6524;51.368;11.984;2022-11-20T12:50:15;14.07;;;10.43;;
12912;SDS011;6524;51.368;11.984;2022-11-20T13:06:55;13.73;;;10.13;;
12912;SDS011;6524;51.368;11.984;2022-11-20T13:12:14;12.43;;;9.70;;
12912;SDS011;6524;51.368;11.984;2022-11-20T13:22:50;11.97;;;9.33;;
12912;SDS011;6524;51.368;11.984;2022-11-20T13:33:45;11.60;;;9.00;;
12912;SDS011;6524;51.368;11.984;2022-11-20T13:38:58;11.63;;;8.90;;
12912;SDS011;6524;51.368;11.984;2022-11-20T13:49:41;12.13;;;9.00;;
12912;SDS011;6524;51.368;11.984;2022-11-20T14:00:41;12.03;;;9.33;;
12912;SDS011;6524;51.368;11.984;2022-11-20T14:06:26;19.27;;;12.70;;
12912;SDS011;6524;51.368;11.984;2022-11-20T14:11:45;12.97;;;9.47;;
12912;SDS011;6524;51.368;11.984;2022-11-20T14:17:09;15.40;;;10.40;;
12912;SDS011;6524;51.368;11.984;2022-11-20T14:22:26;14.67;;;10.20;;
12912;SDS011;6524;51.368;11.984;2022-11-20T14:33:05;12.93;;;9.37;;
12912;SDS011;6524;51.368;11.984;2022-11-20T14:38:32;12.63;;;9.10;;
12912;SDS011;6524;51.368;11.984;2022-11-20T14:44:01;13.67;;;8.90;;
12912;SDS011;6524;51.368;11.984;2022-11-20T14:49:05;13.07;;;8.93;;
12912;SDS011;6524;51.368;11.984;2022-11-20T14:54:09;11.40;;;8.57;;
12912;SDS011;6524;51.368;11.984;2022-11-20T14:59:11;12.23;;;8.10;;
12912;SDS011;6524;51.368;11.984;2022-11-20T15:04:11;12.50;;;8.40;;
12912;SDS011;6524;51.368;11.984;2022-11-20T15:09:13;12.53;;;8.27;;
12912;SDS011;6524;51.368;11.984;2022-11-20T15:14:14;11.17;;;7.83;;
12912;SDS011;6524;51.368;11.984;2022-11-20T15:19:19;11.97;;;8.53;;
12912;SDS011;6524;51.368;11.984;2022-11-20T15:24:21;10.80;;;7.77;;
12912;SDS011;6524;51.368;11.984;2022-11-20T15:29:21;12.47;;;8.33;;
12912;SDS011;6524;51.368;11.984;2022-11-20T15:34:23;11.53;;;7.87;;
12912;SDS011;6524;51.368;11.984;2022-11-20T15:39:24;11.00;;;7.80;;
12912;SDS011;6524;51.368;11.984;2022-11-20T15:44:24;13.10;;;8.43;;
12912;SDS011;6524;51.368;11.984;2022-11-20T15:49:25;13.93;;;9.13;;
12912;SDS011;6524;51.368;11.984;2022-11-20T15:54:25;15.23;;;9.60;;
12912;SDS011;6524;51.368;11.984;2022-11-20T15:59:25;15.67;;;9.77;;
12912;SDS011;6524;51.368;11.984;2022-11-20T16:04:26;15.73;;;10.10;;
12912;SDS011;6524;51.368;11.984;2022-11-20T16:09:26;15.67;;;9.30;;
12912;SDS011;6524;51.368;11.984;2022-11-20T16:14:27;20.23;;;12.63;;
12912;SDS011;6524;51.368;11.984;2022-11-20T16:19:46;16.00;;;10.90;;
12912;SDS011;6524;51.368;11.984;2022-11-20T16:24:46;16.03;;;10.67;;
12912;SDS011;6524;51.368;11.984;2022-11-20T16:29:47;16.93;;;10.63;;
12912;SDS011;6524;51.368;11.984;2022-11-20T16:34:47;16.33;;;9.87;;
12912;SDS011;6524;51.368;11.984;2022-11-20T16:39:47;15.07;;;9.83;;
12912;SDS011;6524;51.368;11.984;2022-11-20T16:44:48;17.70;;;10.93;;
12912;SDS011;6524;51.368;11.984;2022-11-20T16:49:48;19.43;;;12.07;;
12912;SDS011;6524;51.368;11.984;2022-11-20T16:54:49;19.77;;;13.37;;
12912;SDS011;6524;51.368;11.984;2022-11-20T16:59:49;22.27;;;13.40;;
12912;SDS011;6524;51.368;11.984;2022-11-20T17:04:53;19.67;;;11.73;;
12912;SDS011;6524;51.368;11.984;2022-11-20T17:09:54;18.73;;;11.30;;
12912;SDS011;6524;51.368;11.984;2022-11-20T17:14:55;20.13;;;11.80;;
12912;SDS011;6524;51.368;11.984;2022-11-20T17:19:56;17.80;;;11.33;;
12912;SDS011;6524;51.368;11.984;2022-11-20T17:24:56;18.13;;;11.53;;
12912;SDS011;6524;51.368;11.984;2022-11-20T17:29:57;21.50;;;13.17;;
12912;SDS011;6524;51.368;11.984;2022-11-20T17:34:58;18.47;;;11.63;;
12912;SDS011;6524;51.368;11.984;2022-11-20T17:39:58;20.80;;;12.40;;
12912;SDS011;6524;51.368;11.984;2022-11-20T17:44:59;22.37;;;13.73;;
12912;SDS011;6524;51.368;11.984;2022-11-20T17:50:02;28.23;;;17.97;;
12912;SDS011;6524;51.368;11.984;2022-11-20T17:55:03;31.30;;;18.77;;
12912;SDS011;6524;51.368;11.984;2022-11-20T18:00:07;38.10;;;21.80;;
12912;SDS011;6524;51.368;11.984;2022-11-20T18:05:12;38.13;;;22.17;;
12912;SDS011;6524;51.368;11.984;2022-11-20T18:10:13;40.30;;;24.77;;
12912;SDS011;6524;51.368;11.984;2022-11-20T18:15:17;48.47;;;29.60;;
12912;SDS011;6524;51.368;11.984;2022-11-20T18:20:20;49.23;;;29.97;;
12912;SDS011;6524;51.368;11.984;2022-11-20T18:25:21;46.93;;;30.10;;
12912;SDS011;6524;51.368;11.984;2022-11-20T18:30:22;45.63;;;28.73;;
12912;SDS011;6524;51.368;11.984;2022-11-20T18:35:22;43.50;;;27.03;;
12912;SDS011;6524;51.368;11.984;2022-11-20T18:40:23;41.47;;;23.73;;
12912;SDS011;6524;51.368;11.984;2022-11-20T18:45:26;40.70;;;23.93;;
12912;SDS011;6524;51.368;11.984;2022-11-20T18:50:33;42.13;;;23.17;;
12912;SDS011;6524;51.368;11.984;2022-11-20T18:55:37;40.00;;;22.67;;
12912;SDS011;6524;51.368;11.984;2022-11-20T19:00:37;38.37;;;21.97;;
12912;SDS011;6524;51.368;11.984;2022-11-20T19:05:38;39.50;;;23.03;;
12912;SDS011;6524;51.368;11.984;2022-11-20T19:10:39;37.23;;;20.97;;
12912;SDS011;6524;51.368;11.984;2022-11-20T19:15:39;33.13;;;20.40;;
12912;SDS011;6524;51.368;11.984;2022-11-20T19:20:39;36.27;;;21.30;;
12912;SDS011;6524;51.368;11.984;2022-11-20T19:25:40;41.57;;;23.57;;
12912;SDS011;6524;51.368;11.984;2022-11-20T19:30:40;42.17;;;24.07;;
12912;SDS011;6524;51.368;11.984;2022-11-20T19:35:41;39.37;;;24.63;;
12912;SDS011;6524;51.368;11.984;2022-11-20T19:40:42;46.30;;;30.03;;
12912;SDS011;6524;51.368;11.984;2022-11-20T19:45:42;43.90;;;26.23;;
12912;SDS011;6524;51.368;11.984;2022-11-20T19:50:43;39.80;;;24.13;;
12912;SDS011;6524;51.368;11.984;2022-11-20T19:55:56;37.97;;;22.30;;
12912;SDS011;6524;51.368;11.984;2022-11-20T20:01:04;37.57;;;21.30;;
12912;SDS011;6524;51.368;11.984;2022-11-20T20:06:19;43.77;;;23.37;;
12912;SDS011;6524;51.368;11.984;2022-11-20T20:11:21;31.80;;;18.17;;
12912;SDS011;6524;51.368;11.984;2022-11-20T20:16:23;29.10;;;17.50;;
12912;SDS011;6524;51.368;11.984;2022-11-20T20:21:25;28.50;;;16.23;;
12912;SDS011;6524;51.368;11.984;2022-11-20T20:26:27;31.63;;;17.43;;
12912;SDS011;6524;51.368;11.984;2022-11-20T20:31:29;30.80;;;17.37;;
12912;SDS011;6524;51.368;11.984;2022-11-20T20:36:31;33.40;;;18.53;;
12912;SDS011;6524;51.368;11.984;2022-11-20T20:41:32;31.23;;;17.97;;
12912;SDS011;6524;51.368;11.984;2022-11-20T20:46:32;27.93;;;16.70;;
12912;SDS011;6524;51.368;11.984;2022-11-20T20:51:33;29.67;;;17.37;;
12912;SDS011;6524;51.368;11.984;2022-11-20T20:56:33;27.60;;;16.07;;
12912;SDS011;6524;51.368;11.984;2022-11-20T21:01:34;28.83;;;17.00;;
12912;SDS011;6524;51.368;11.984;2022-11-20T21:06:34;28.10;;;17.27;;
12912;SDS011;6524;51.368;11.984;2022-11-20T21:11:35;26.60;;;15.97;;
12912;SDS011;6524;51.368;11.984;2022-11-20T21:16:35;29.00;;;16.80;;
12912;SDS011;6524;51.368;11.984;2022-11-20T21:21:42;27.93;;;16.00;;
12912;SDS011;6524;51.368;11.984;2022-11-20T21:26:59;25.10;;;15.60;;
12912;SDS011;6524;51.368;11.984;2022-11-20T21:32:00;25.27;;;15.60;;
12912;SDS011;6524;51.368;11.984;2022-11-20T21:37:01;23.57;;;14.23;;
12912;SDS011;6524;51.368;11.984;2022-11-20T21:42:01;24.07;;;14.90;;
12912;SDS011;6524;51.368;11.984;2022-11-20T21:47:02;22.67;;;13.77;;
12912;SDS011;6524;51.368;11.984;2022-11-20T21:52:02;24.93;;;14.87;;
12912;SDS011;6524;51.368;11.984;2022-11-20T21:57:02;25.87;;;16.33;;
12912;SDS011;6524;51.368;11.984;2022-11-20T22:02:03;29.50;;;17.10;;
12912;SDS011;6524;51.368;11.984;2022-11-20T22:07:06;28.70;;;17.27;;
12912;SDS011;6524;51.368;11.984;2022-11-20T22:12:07;30.33;;;19.07;;
12912;SDS011;6524;51.368;11.984;2022-11-20T22:17:10;30.97;;;20.40;;
12912;SDS011;6524;51.368;11.984;2022-11-20T22:22:12;29.30;;;18.77;;
12912;SDS011;6524;51.368;11.984;2022-11-20T22:27:12;30.33;;;17.57;;
12912;SDS011;6524;51.368;11.984;2022-11-20T22:32:13;26.90;;;16.27;;
12912;SDS011;6524;51.368;11.984;2022-11-20T22:37:13;26.53;;;15.67;;
12912;SDS011;6524;51.368;11.984;2022-11-20T22:42:13;26.83;;;15.90;;
12912;SDS011;6524;51.368;11.984;2022-11-20T22:47:14;25.67;;;16.70;;
12912;SDS011;6524;51.368;11.984;2022-11-20T22:52:14;30.07;;;17.53;;
12912;SDS011;6524;51.368;11.984;2022-11-20T22:57:14;27.40;;;17.03;;
12912;SDS011;6524;51.368;11.984;2022-11-20T23:02:15;27.17;;;16.27;;
12912;SDS011;6524;51.368;11.984;2022-11-20T23:07:15;26.07;;;16.07;;
12912;SDS011;6524;51.368;11.984;2022-11-20T23:12:15;28.10;;;16.03;;
12912;SDS011;6524;51.368;11.984;2022-11-20T23:17:16;26.43;;;16.83;;
12912;SDS011;6524;51.368;11.984;2022-11-20T23:22:17;26.27;;;16.47;;
12912;SDS011;6524;51.368;11.984;2022-11-20T23:27:17;29.03;;;17.03;;
12912;SDS011;6524;51.368;11.984;2022-11-20T23:32:18;26.40;;;17.17;;
12912;SDS011;6524;51.368;11.984;2022-11-20T23:37:18;27.00;;;16.57;;
12912;SDS011;6524;51.368;11.984;2022-11-20T23:42:19;26.50;;;16.97;;
12912;SDS011;6524;51.368;11.984;2022-11-20T23:47:19;29.40;;;18.27;;
12912;SDS011;6524;51.368;11.984;2022-11-20T23:52:19;27.63;;;17.33;;
12912;SDS011;6524;51.368;11.984;2022-11-20T23:57:21;26.40;;;17.50;;
